Ashland, New York
Current Conditions -  °F | °C
As of 2:51 AM on Sunday 21 Dec 2014 (Local Time) from KALB Reporting Station
Light Snow Light Snow  
Wind Chill: -5°   Ceiling: 2300
Heat Index: -2°   Visibility: 10mi
Dew Point: -7°   Wind: 5mph
Humidity: 69%   Direction: 20°NNE
Pressure: 30.31"   Gusts: NA
Location:  42.3°N, 74.33°W
Report Text: KALB 210751Z 02004KT 10SM -SN BKN023 OVC035 M02/M07 A3031 RMK AO2 SLP269 BKN V SCT P0000 T10221072
Loading
Personal Weather Stations






























Interactive Weather Map New forecast layout! Learn more

10-Day Weather Forecast

Advertisements
Track Severe Weather on mobile